Time;durP1;ratioP1;P1;durP2;ratioP2;P2;SDS_P1;SDS_P2;PMS_P1;PMS_P2;Temp;Humidity;BMP_temperature;BMP_pressure;BME280_temperature;BME280_humidity;BME280_pressure;Samples;Min_cycle;Max_cycle;Signal;HPM_P1;HPM_P2
2021/09/23 00:02:48;;;;;;;5.22;4.32;;;19.30;67.60;;;;;;10497062;28;20036;-46
2021/09/23 00:07:53;;;;;;;6.00;4.90;;;19.30;67.50;;;;;;10496938;28;20031;-47
2021/09/23 00:12:56;;;;;;;5.55;4.03;;;19.20;67.60;;;;;;10497083;28;20028;-47
2021/09/23 00:18:02;;;;;;;6.10;5.22;;;19.20;67.60;;;;;;10496588;28;20028;-47
2021/09/23 00:23:04;;;;;;;5.15;4.45;;;19.20;67.60;;;;;;10496000;28;20401;-48
2021/09/23 00:28:08;;;;;;;5.13;4.22;;;19.20;67.80;;;;;;10495568;28;20090;-47
2021/09/23 00:33:08;;;;;;;6.18;4.57;;;19.20;67.80;;;;;;10496323;28;20024;-46
2021/09/23 00:38:09;;;;;;;5.10;4.20;;;19.20;67.60;;;;;;10495087;28;20119;-46
2021/09/23 00:43:10;;;;;;;5.47;4.30;;;19.20;67.40;;;;;;10496378;28;20032;-46
2021/09/23 00:48:10;;;;;;;5.00;4.32;;;19.20;67.50;;;;;;10496112;28;20060;-46
2021/09/23 00:53:11;;;;;;;6.55;5.30;;;19.20;67.40;;;;;;10495931;28;20112;-48
2021/09/23 00:58:12;;;;;;;5.75;4.65;;;19.20;67.30;;;;;;10495846;28;20037;-47
2021/09/23 01:03:13;;;;;;;5.78;4.57;;;19.20;67.20;;;;;;10496105;28;20042;-50
2021/09/23 01:08:14;;;;;;;6.07;4.95;;;19.10;67.30;;;;;;10496639;28;20040;-51
2021/09/23 01:13:15;;;;;;;6.80;4.57;;;19.10;67.10;;;;;;10503604;28;20120;-51
2021/09/23 01:18:16;;;;;;;6.13;4.03;;;19.10;67.10;;;;;;10502074;28;20064;-52
2021/09/23 01:23:17;;;;;;;6.05;4.93;;;19.10;67.30;;;;;;10507559;28;20024;-48
2021/09/23 01:28:17;;;;;;;5.38;3.92;;;19.10;67.20;;;;;;10502734;28;20044;-49
2021/09/23 01:33:18;;;;;;;4.72;3.92;;;19.10;67.20;;;;;;10501693;28;20112;-46
2021/09/23 01:38:19;;;;;;;4.93;4.30;;;19.10;67.30;;;;;;10502352;28;20110;-49
2021/09/23 01:43:21;;;;;;;6.05;4.35;;;19.10;67.20;;;;;;10502849;28;20123;-48
2021/09/23 01:48:22;;;;;;;6.30;4.78;;;19.10;67.00;;;;;;10500239;28;20033;-47
2021/09/23 01:53:22;;;;;;;5.75;4.05;;;19.10;67.20;;;;;;10502580;28;20028;-49
2021/09/23 01:58:23;;;;;;;5.07;4.00;;;19.10;67.40;;;;;;10502198;28;20107;-48
2021/09/23 02:03:24;;;;;;;5.80;4.57;;;19.00;67.10;;;;;;10502098;28;20036;-47
2021/09/23 02:08:24;;;;;;;6.10;4.57;;;19.10;67.00;;;;;;10501640;28;20075;-48
2021/09/23 02:13:25;;;;;;;6.00;4.78;;;19.00;67.20;;;;;;10501826;28;20056;-48
2021/09/23 02:18:26;;;;;;;5.88;5.03;;;19.00;67.30;;;;;;10502724;28;20461;-46
2021/09/23 02:23:27;;;;;;;5.55;4.40;;;19.00;67.30;;;;;;10502379;28;20032;-52
2021/09/23 02:28:27;;;;;;;4.97;3.83;;;19.10;67.30;;;;;;10500663;28;20485;-52
2021/09/23 02:33:28;;;;;;;4.90;4.07;;;19.00;67.10;;;;;;10499482;28;20103;-48
2021/09/23 02:38:29;;;;;;;6.32;4.65;;;19.00;67.10;;;;;;10499663;28;20099;-52
2021/09/23 02:43:30;;;;;;;5.65;4.25;;;19.00;67.00;;;;;;10500480;28;20037;-47
2021/09/23 02:48:31;;;;;;;5.22;3.58;;;19.00;67.10;;;;;;10494845;28;20033;-48
2021/09/23 02:53:31;;;;;;;5.03;4.07;;;19.00;67.20;;;;;;10499316;28;20024;-50
2021/09/23 02:58:32;;;;;;;5.43;4.43;;;19.00;67.30;;;;;;10499074;28;20392;-47
2021/09/23 03:03:33;;;;;;;5.25;4.50;;;19.00;67.30;;;;;;10499861;28;20162;-48
2021/09/23 03:08:33;;;;;;;5.13;4.05;;;19.00;67.20;;;;;;10498987;28;20060;-47
2021/09/23 03:13:34;;;;;;;5.72;5.13;;;19.00;67.30;;;;;;10498999;28;20119;-52
2021/09/23 03:18:35;;;;;;;4.85;3.92;;;19.00;67.20;;;;;;10501201;28;21410;-48
2021/09/23 03:23:35;;;;;;;6.80;4.68;;;19.00;67.10;;;;;;10498947;28;20473;-46
2021/09/23 03:28:36;;;;;;;5.93;4.65;;;18.90;67.10;;;;;;10489253;28;20115;-48
2021/09/23 03:33:37;;;;;;;7.93;4.68;;;18.90;67.10;;;;;;10496519;28;20381;-47
2021/09/23 03:38:37;;;;;;;4.97;4.22;;;18.90;67.20;;;;;;10498085;28;20129;-50
2021/09/23 03:43:38;;;;;;;7.47;4.47;;;18.90;67.00;;;;;;10498321;28;20115;-51
2021/09/23 03:48:39;;;;;;;6.13;4.50;;;18.90;67.10;;;;;;10495522;28;20089;-49
2021/09/23 03:53:41;;;;;;;5.78;4.32;;;18.90;67.00;;;;;;10497062;28;20013;-52
2021/09/23 03:58:43;;;;;;;6.40;4.63;;;18.90;67.10;;;;;;10497194;28;20123;-50
2021/09/23 04:03:44;;;;;;;7.43;4.80;;;18.90;66.70;;;;;;10495706;28;20036;-49
2021/09/23 04:08:44;;;;;;;6.13;4.43;;;18.90;66.70;;;;;;10495094;28;20025;-47
2021/09/23 04:13:45;;;;;;;7.53;4.97;;;18.90;66.70;;;;;;10496418;28;20095;-50
2021/09/23 04:18:45;;;;;;;6.57;4.93;;;18.90;66.80;;;;;;10496703;28;20115;-50
2021/09/23 04:23:46;;;;;;;6.40;5.25;;;18.90;66.80;;;;;;10495121;28;20107;-46
2021/09/23 04:28:47;;;;;;;6.47;5.05;;;18.90;66.90;;;;;;10495837;28;20193;-46
2021/09/23 04:33:47;;;;;;;7.35;4.97;;;18.90;66.90;;;;;;10494081;28;20104;-47
2021/09/23 04:38:48;;;;;;;6.57;4.70;;;18.90;66.80;;;;;;10491920;28;20033;-47
2021/09/23 04:43:49;;;;;;;5.78;4.60;;;18.90;67.30;;;;;;10497980;28;20036;-47
2021/09/23 04:48:52;;;;;;;6.13;4.95;;;18.90;67.30;;;;;;10501493;28;20032;-47
2021/09/23 04:53:54;;;;;;;6.13;4.30;;;18.90;67.00;;;;;;10520080;28;20020;-48
2021/09/23 04:58:54;;;;;;;8.13;5.60;;;18.90;66.80;;;;;;10499432;28;20040;-52
2021/09/23 05:03:56;;;;;;;6.53;5.30;;;18.80;66.70;;;;;;10504433;28;20051;-51
2021/09/23 05:08:57;;;;;;;5.90;4.53;;;18.80;66.60;;;;;;10503604;28;20113;-53
2021/09/23 05:13:57;;;;;;;15.35;6.03;;;18.90;67.30;;;;;;10490976;28;20074;-54
2021/09/23 05:18:58;;;;;;;11.88;6.82;;;19.00;67.70;;;;;;10500600;28;20056;-48
2021/09/23 05:23:59;;;;;;;11.32;5.68;;;19.10;66.70;;;;;;10502111;28;20115;-56
2021/09/23 05:28:59;;;;;;;16.95;6.82;;;19.20;67.10;;;;;;10502940;28;20147;-51
2021/09/23 05:34:00;;;;;;;8.75;5.78;;;19.20;67.60;;;;;;10503171;28;20166;-51
2021/09/23 05:39:03;;;;;;;11.70;7.15;;;19.20;67.90;;;;;;10492645;28;20120;-48
2021/09/23 05:44:04;;;;;;;13.65;6.78;;;19.10;67.90;;;;;;10502747;28;20029;-54
2021/09/23 05:49:05;;;;;;;8.55;6.05;;;19.10;68.10;;;;;;10500733;28;20487;-50
2021/09/23 05:54:06;;;;;;;11.10;6.75;;;19.10;68.00;;;;;;10501012;28;20073;-46
2021/09/23 05:59:07;;;;;;;16.95;7.97;;;19.10;67.90;;;;;;10501786;28;20052;-50
2021/09/23 06:04:08;;;;;;;14.18;7.18;;;19.10;67.80;;;;;;10501949;28;20440;-47
2021/09/23 06:09:09;;;;;;;12.02;6.20;;;19.10;67.80;;;;;;10500491;28;20049;-48
2021/09/23 06:14:10;;;;;;;8.02;5.63;;;19.10;68.00;;;;;;10499561;28;20055;-48
2021/09/23 06:19:11;;;;;;;8.85;5.53;;;19.00;68.00;;;;;;10503157;28;20036;-50
2021/09/23 06:24:11;;;;;;;10.18;6.53;;;19.00;67.80;;;;;;10490631;28;20115;-52
2021/09/23 06:29:13;;;;;;;12.07;5.95;;;19.00;67.70;;;;;;10496997;28;20049;-50
2021/09/23 06:34:13;;;;;;;8.38;5.43;;;19.00;67.70;;;;;;10490919;28;20361;-53
2021/09/23 06:39:15;;;;;;;7.88;5.28;;;19.00;68.00;;;;;;10499848;28;20036;-52
2021/09/23 06:44:16;;;;;;;11.77;5.45;;;19.00;68.00;;;;;;10498657;28;20115;-49
2021/09/23 06:49:17;;;;;;;9.38;6.28;;;19.00;67.90;;;;;;10497017;28;20464;-51
2021/09/23 06:54:18;;;;;;;10.68;6.88;;;19.00;68.00;;;;;;10498593;28;20048;-54
2021/09/23 06:59:19;;;;;;;10.20;6.10;;;19.00;68.00;;;;;;10498191;28;20064;-50
2021/09/23 07:04:19;;;;;;;8.20;5.78;;;19.00;68.10;;;;;;10499579;28;20038;-53
2021/09/23 07:09:20;;;;;;;9.05;6.05;;;19.00;68.10;;;;;;10497489;28;20081;-54
2021/09/23 07:14:21;;;;;;;8.32;6.38;;;19.00;68.10;;;;;;10499174;28;20031;-50
2021/09/23 07:19:22;;;;;;;9.65;7.25;;;19.00;68.10;;;;;;10499917;28;20399;-51
2021/09/23 07:24:24;;;;;;;10.15;7.63;;;19.00;68.20;;;;;;10499549;28;20099;-52
2021/09/23 07:29:25;;;;;;;8.30;6.40;;;19.00;68.30;;;;;;10494099;28;20196;-52
2021/09/23 07:34:26;;;;;;;8.73;5.80;;;19.00;68.30;;;;;;10497260;28;20017;-53
2021/09/23 07:39:27;;;;;;;10.40;6.47;;;19.00;68.40;;;;;;10491242;28;20385;-47
2021/09/23 07:44:28;;;;;;;10.00;6.35;;;19.00;68.50;;;;;;10494739;28;20107;-47
2021/09/23 07:49:29;;;;;;;10.77;6.40;;;19.00;68.50;;;;;;10495349;28;20542;-53
2021/09/23 07:54:29;;;;;;;9.48;6.13;;;19.00;68.50;;;;;;10497167;28;20078;-51
2021/09/23 07:59:30;;;;;;;8.10;6.50;;;19.00;68.50;;;;;;10497686;28;20170;-51
2021/09/23 08:04:32;;;;;;;7.97;6.32;;;19.00;68.40;;;;;;10497129;28;20028;-48
2021/09/23 08:09:32;;;;;;;11.27;7.38;;;19.00;68.30;;;;;;10495978;28;20373;-52
2021/09/23 08:14:33;;;;;;;10.00;7.75;;;19.00;68.10;;;;;;10496226;28;20028;-54
2021/09/23 08:19:37;;;;;;;10.05;8.07;;;19.00;67.90;;;;;;10499777;28;20032;-48
2021/09/23 08:24:39;;;;;;;13.85;7.60;;;19.00;68.00;;;;;;10493212;28;20032;-52
2021/09/23 08:29:40;;;;;;;13.02;7.88;;;19.00;68.10;;;;;;10495543;28;20072;-51
2021/09/23 08:34:42;;;;;;;10.50;7.65;;;19.00;68.20;;;;;;10492533;28;20082;-51
2021/09/23 08:39:42;;;;;;;12.07;8.13;;;19.00;68.20;;;;;;10493926;28;20533;-49
2021/09/23 08:44:43;;;;;;;9.98;6.82;;;19.00;68.20;;;;;;10494597;28;20059;-50
2021/09/23 08:49:44;;;;;;;8.50;6.40;;;19.00;68.30;;;;;;10495251;28;20071;-53
2021/09/23 08:54:45;;;;;;;10.02;7.70;;;19.00;68.40;;;;;;10496226;28;20439;-51
2021/09/23 08:59:45;;;;;;;9.25;8.05;;;19.00;68.40;;;;;;10496006;28;20397;-50
2021/09/23 09:04:52;;;;;;;9.13;6.28;;;19.00;68.40;;;;;;10496358;28;20059;-53
2021/09/23 09:10:06;;;;;;;9.77;6.47;;;19.00;68.40;;;;;;10495994;28;20028;-49
2021/09/23 09:15:07;;;;;;;8.13;6.53;;;19.00;68.40;;;;;;10495601;28;20385;-52
2021/09/23 09:20:09;;;;;;;9.85;7.00;;;19.00;68.30;;;;;;10503656;28;20090;-53
2021/09/23 09:25:12;;;;;;;8.63;5.45;;;19.00;68.40;;;;;;10495410;28;20031;-52
2021/09/23 09:30:23;;;;;;;10.15;6.72;;;19.00;68.30;;;;;;10488341;28;20389;-51
2021/09/23 09:35:31;;;;;;;8.02;6.38;;;19.00;68.30;;;;;;10488774;28;20024;-54
2021/09/23 09:40:37;;;;;;;7.18;5.60;;;19.00;68.40;;;;;;10502966;28;20538;-52
2021/09/23 09:45:40;;;;;;;8.18;6.55;;;19.00;68.40;;;;;;10501455;28;20040;-48
2021/09/23 09:50:43;;;;;;;8.27;5.88;;;19.00;68.50;;;;;;10502493;28;20032;-52
2021/09/23 09:55:45;;;;;;;7.13;5.20;;;19.00;68.50;;;;;;10502537;28;20020;-51
2021/09/23 10:00:46;;;;;;;7.57;5.60;;;19.00;68.60;;;;;;10501956;28;20067;-51
2021/09/23 10:05:47;;;;;;;5.43;4.57;;;19.00;68.50;;;;;;10500944;28;20107;-52
2021/09/23 10:10:49;;;;;;;7.78;5.35;;;19.00;68.50;;;;;;10500363;28;20032;-49
2021/09/23 10:15:51;;;;;;;6.45;4.85;;;19.00;68.50;;;;;;10501619;28;20070;-52
2021/09/23 10:20:52;;;;;;;5.85;4.93;;;19.00;68.50;;;;;;10511909;28;20071;-53
2021/09/23 10:25:54;;;;;;;6.43;4.90;;;19.00;68.50;;;;;;10499867;28;20039;-49
2021/09/23 10:30:56;;;;;;;6.65;4.82;;;19.00;68.50;;;;;;10499412;28;20541;-49
2021/09/23 10:35:57;;;;;;;6.93;5.28;;;19.00;68.60;;;;;;10498905;28;20035;-54
2021/09/23 10:40:59;;;;;;;6.22;4.30;;;19.00;68.50;;;;;;10498715;28;20024;-51
2021/09/23 10:46:00;;;;;;;6.65;5.05;;;19.00;68.50;;;;;;10500356;28;20029;-52
2021/09/23 10:51:05;;;;;;;5.85;4.60;;;19.10;68.60;;;;;;10500335;28;20029;-52
2021/09/23 10:56:08;;;;;;;6.30;4.82;;;19.00;68.50;;;;;;10499977;28;20028;-50
2021/09/23 11:01:26;;;;;;;6.97;4.50;;;19.00;68.60;;;;;;10498319;28;20427;-50
2021/09/23 11:06:41;;;;;;;6.72;4.15;;;19.00;68.50;;;;;;10499735;28;20065;-48
2021/09/23 11:11:47;;;;;;;5.75;4.57;;;19.10;68.70;;;;;;10499156;28;20040;-49
2021/09/23 11:16:53;;;;;;;8.85;4.47;;;19.00;68.60;;;;;;10498323;28;20021;-54
2021/09/23 11:21:57;;;;;;;6.38;3.80;;;19.00;68.70;;;;;;10509265;28;20025;-52
2021/09/23 11:26:59;;;;;;;5.57;4.00;;;19.00;68.60;;;;;;10497992;28;20377;-51
2021/09/23 11:31:59;;;;;;;4.82;3.67;;;19.00;68.60;;;;;;10497368;28;20032;-52
2021/09/23 11:37:01;;;;;;;5.20;3.47;;;19.00;68.60;;;;;;10513731;28;20552;-54
2021/09/23 11:42:16;;;;;;;6.32;3.95;;;19.00;68.60;;;;;;10480363;28;20082;-53
2021/09/23 11:47:19;;;;;;;4.97;3.50;;;19.00;68.90;;;;;;10497899;28;20435;-49
2021/09/23 11:52:35;;;;;;;4.65;3.40;;;19.00;68.90;;;;;;10497559;28;20048;-52
2021/09/23 11:57:36;;;;;;;6.25;4.10;;;19.10;68.90;;;;;;10497630;28;20075;-54
2021/09/23 12:02:37;;;;;;;7.63;4.38;;;19.10;68.90;;;;;;10497386;28;20052;-51
2021/09/23 12:07:44;;;;;;;4.85;3.70;;;19.10;68.80;;;;;;10497257;28;20071;-53
2021/09/23 12:12:58;;;;;;;4.45;3.80;;;19.10;68.80;;;;;;10495853;28;20063;-53
2021/09/23 12:18:00;;;;;;;5.25;3.40;;;19.10;68.80;;;;;;10497195;28;20029;-48
2021/09/23 12:23:17;;;;;;;4.72;3.80;;;19.10;68.70;;;;;;10504564;28;20025;-53
2021/09/23 12:28:17;;;;;;;4.93;3.53;;;19.20;68.70;;;;;;10495400;28;20172;-53
2021/09/23 12:33:23;;;;;;;4.45;3.33;;;19.20;68.70;;;;;;10475336;28;20033;-50
2021/09/23 12:38:27;;;;;;;5.55;3.92;;;19.20;68.70;;;;;;10496253;28;20412;-49
2021/09/23 12:43:37;;;;;;;5.43;3.53;;;19.20;68.60;;;;;;10496701;28;20384;-50
2021/09/23 12:48:40;;;;;;;4.15;3.67;;;19.10;68.60;;;;;;10494694;28;20078;-54
2021/09/23 12:53:41;;;;;;;6.28;3.50;;;19.20;68.60;;;;;;10496089;28;20077;-51
2021/09/23 12:58:42;;;;;;;4.13;3.13;;;19.20;68.60;;;;;;10496264;28;20403;-50
2021/09/23 13:03:43;;;;;;;4.30;3.47;;;19.20;68.60;;;;;;10497581;28;20103;-48
2021/09/23 13:08:47;;;;;;;5.97;3.97;;;19.20;68.70;;;;;;10503084;28;20127;-53
2021/09/23 13:13:48;;;;;;;3.90;2.97;;;19.10;68.60;;;;;;10504222;28;20036;-54
2021/09/23 13:18:49;;;;;;;4.43;3.65;;;19.10;68.60;;;;;;10507621;28;20048;-52
2021/09/23 13:23:50;;;;;;;4.70;3.22;;;19.10;68.60;;;;;;10508605;28;20422;-52
2021/09/23 13:28:50;;;;;;;6.25;3.28;;;19.10;68.70;;;;;;10503489;28;20049;-52
2021/09/23 13:33:52;;;;;;;4.70;2.97;;;19.10;68.70;;;;;;10503620;28;20420;-53
2021/09/23 13:38:53;;;;;;;3.75;3.03;;;19.10;68.70;;;;;;10503119;28;20089;-53
2021/09/23 13:43:54;;;;;;;5.40;3.40;;;19.10;68.70;;;;;;10503311;28;20025;-53
2021/09/23 13:48:55;;;;;;;4.57;3.28;;;19.10;68.70;;;;;;10501159;28;20040;-53
2021/09/23 13:53:55;;;;;;;4.32;3.33;;;19.10;68.70;;;;;;10502694;28;20103;-49
2021/09/23 13:58:56;;;;;;;4.28;3.17;;;19.10;68.70;;;;;;10502413;28;20056;-49
2021/09/23 14:03:57;;;;;;;3.25;2.67;;;19.10;68.70;;;;;;10501482;28;20429;-50
2021/09/23 14:08:57;;;;;;;3.15;2.65;;;19.10;68.80;;;;;;10497823;28;20036;-48
2021/09/23 14:13:58;;;;;;;5.15;3.45;;;19.10;68.80;;;;;;10499698;28;20066;-48
2021/09/23 14:18:59;;;;;;;5.05;3.38;;;19.10;68.80;;;;;;10504953;28;20028;-50
2021/09/23 14:24:01;;;;;;;4.80;2.50;;;19.10;69.40;;;;;;10504772;28;20048;-47
2021/09/23 14:29:02;;;;;;;3.63;2.75;;;19.10;68.80;;;;;;10500785;28;20397;-49
2021/09/23 14:34:02;;;;;;;3.92;3.08;;;19.10;68.90;;;;;;10500666;28;20127;-52
2021/09/23 14:39:05;;;;;;;2.97;2.67;;;19.10;68.90;;;;;;10500930;28;20490;-51
2021/09/23 14:44:05;;;;;;;3.60;2.90;;;19.10;69.00;;;;;;10500494;28;20032;-52
2021/09/23 14:49:06;;;;;;;3.45;2.58;;;19.10;69.30;;;;;;10500449;28;20475;-49
2021/09/23 14:54:07;;;;;;;4.03;2.97;;;19.10;69.00;;;;;;10499982;28;20043;-48
2021/09/23 14:59:11;;;;;;;8.35;3.00;;;19.10;69.00;;;;;;10498694;28;20039;-52
2021/09/23 15:04:12;;;;;;;4.00;3.17;;;19.10;69.10;;;;;;10499954;28;20483;-48
2021/09/23 15:09:13;;;;;;;3.47;2.63;;;19.10;69.10;;;;;;10498270;28;20028;-49
2021/09/23 15:14:14;;;;;;;4.05;2.65;;;19.10;69.10;;;;;;10497869;28;20029;-47
2021/09/23 15:19:15;;;;;;;4.70;2.38;;;19.10;69.10;;;;;;10507315;28;20115;-48
2021/09/23 15:24:16;;;;;;;4.03;2.63;;;19.10;69.10;;;;;;10500114;28;20033;-48
2021/09/23 15:29:17;;;;;;;4.05;2.83;;;19.10;69.20;;;;;;10497397;28;20469;-47
2021/09/23 15:34:17;;;;;;;4.03;2.80;;;19.10;69.10;;;;;;10491894;28;20372;-47
2021/09/23 15:39:18;;;;;;;3.63;2.38;;;19.10;69.20;;;;;;10497330;28;20488;-48
2021/09/23 15:44:19;;;;;;;3.42;2.70;;;19.20;69.80;;;;;;10498689;28;20111;-46
2021/09/23 15:49:20;;;;;;;4.10;2.58;;;19.20;69.60;;;;;;10496361;28;20123;-48
2021/09/23 15:54:21;;;;;;;3.30;2.25;;;19.30;69.30;;;;;;10497839;28;20036;-52
2021/09/23 15:59:21;;;;;;;4.00;1.90;;;19.30;69.10;;;;;;10497720;28;20070;-50
2021/09/23 16:04:22;;;;;;;3.08;1.83;;;19.40;69.10;;;;;;10491964;28;20040;-48
2021/09/23 16:09:23;;;;;;;7.88;2.75;;;19.40;69.10;;;;;;10497457;28;20060;-51
2021/09/23 16:14:24;;;;;;;8.82;2.80;;;19.50;69.10;;;;;;10497178;28;20107;-53
2021/09/23 16:19:24;;;;;;;11.57;3.20;;;19.60;69.60;;;;;;10506745;28;20035;-48
2021/09/23 16:24:25;;;;;;;5.35;3.30;;;19.70;70.10;;;;;;10496285;28;20036;-49
2021/09/23 16:29:26;;;;;;;8.15;3.38;;;19.70;70.90;;;;;;10494986;28;20053;-48
2021/09/23 16:34:28;;;;;;;14.52;4.03;;;19.60;70.70;;;;;;10496450;28;20064;-48
2021/09/23 16:39:29;;;;;;;28.55;4.80;;;19.60;70.70;;;;;;10495197;28;20059;-49
2021/09/23 16:44:31;;;;;;;10.68;3.78;;;19.50;70.70;;;;;;10497161;28;20421;-51
2021/09/23 16:49:31;;;;;;;13.30;3.70;;;19.50;70.80;;;;;;10496338;28;20040;-48
2021/09/23 16:54:32;;;;;;;15.82;3.63;;;19.50;70.80;;;;;;10491374;28;20037;-52
2021/09/23 16:59:33;;;;;;;9.55;3.38;;;19.40;70.70;;;;;;10495183;28;20037;-47
2021/09/23 17:04:34;;;;;;;10.13;2.75;;;19.40;70.70;;;;;;10496294;28;20117;-49
2021/09/23 17:09:35;;;;;;;7.72;3.28;;;19.40;70.70;;;;;;10496298;28;20060;-52
2021/09/23 17:14:35;;;;;;;6.95;3.40;;;19.40;70.70;;;;;;10496006;28;20035;-52
2021/09/23 17:19:36;;;;;;;8.30;2.92;;;19.30;70.60;;;;;;10496781;28;20028;-52
2021/09/23 17:24:37;;;;;;;5.63;2.88;;;19.30;70.50;;;;;;10495629;28;20028;-48
2021/09/23 17:29:37;;;;;;;8.27;2.70;;;19.40;70.70;;;;;;10491264;28;20128;-47
2021/09/23 17:34:38;;;;;;;6.20;2.70;;;19.40;71.50;;;;;;10486614;28;20038;-50
2021/09/23 17:39:39;;;;;;;9.50;3.13;;;19.40;71.10;;;;;;10495982;28;20028;-48
2021/09/23 17:44:40;;;;;;;6.97;3.13;;;19.40;71.10;;;;;;10495361;28;20058;-47
2021/09/23 17:49:40;;;;;;;10.65;3.65;;;19.40;71.00;;;;;;10491479;28;20120;-48
2021/09/23 17:54:41;;;;;;;14.15;3.00;;;19.40;71.10;;;;;;10502674;28;20041;-52
2021/09/23 17:59:42;;;;;;;9.18;2.80;;;19.40;71.20;;;;;;10496052;28;20028;-51
2021/09/23 18:04:43;;;;;;;9.73;3.22;;;19.40;71.20;;;;;;10515649;28;20123;-49
2021/09/23 18:09:44;;;;;;;6.65;2.80;;;19.40;71.60;;;;;;10488785;28;20035;-51
2021/09/23 18:14:45;;;;;;;6.22;2.60;;;19.40;71.60;;;;;;10501781;28;20031;-51
2021/09/23 18:19:45;;;;;;;5.45;2.85;;;19.40;71.30;;;;;;10510148;28;20481;-49
2021/09/23 18:24:46;;;;;;;9.25;2.85;;;19.40;71.20;;;;;;10499869;28;20071;-53
2021/09/23 18:29:47;;;;;;;5.35;2.90;;;19.40;71.20;;;;;;10500227;28;20037;-54
2021/09/23 18:34:49;;;;;;;6.22;3.05;;;19.40;71.20;;;;;;10500174;28;20612;-51
2021/09/23 18:39:49;;;;;;;8.15;3.78;;;19.40;71.20;;;;;;10500399;28;20020;-53
2021/09/23 18:44:51;;;;;;;6.20;2.35;;;19.40;71.40;;;;;;10500626;28;20123;-53
2021/09/23 18:49:52;;;;;;;5.75;2.45;;;19.40;71.20;;;;;;10500326;28;20039;-52
2021/09/23 18:54:53;;;;;;;6.22;2.40;;;19.40;71.20;;;;;;10480719;28;20027;-49
2021/09/23 18:59:54;;;;;;;7.45;3.05;;;19.40;71.20;;;;;;10481065;28;20039;-52
2021/09/23 19:04:54;;;;;;;5.65;2.92;;;19.40;71.40;;;;;;10497286;28;20508;-51
2021/09/23 19:09:56;;;;;;;5.18;2.60;;;19.40;71.40;;;;;;10487238;28;20083;-51
2021/09/23 19:14:56;;;;;;;5.03;2.35;;;19.40;71.40;;;;;;10498903;28;20017;-51
2021/09/23 19:19:57;;;;;;;5.25;2.30;;;19.40;71.40;;;;;;10508783;28;20104;-56
2021/09/23 19:24:58;;;;;;;5.28;2.30;;;19.40;71.40;;;;;;10498066;28;20380;-51
2021/09/23 19:29:59;;;;;;;4.55;2.53;;;19.40;71.40;;;;;;10496539;28;20044;-48
2021/09/23 19:35:00;;;;;;;5.00;2.33;;;19.40;71.40;;;;;;10494247;28;20043;-51
2021/09/23 19:40:04;;;;;;;7.93;3.08;;;19.40;71.40;;;;;;10496106;28;20035;-50
2021/09/23 19:45:08;;;;;;;4.20;2.08;;;19.40;71.30;;;;;;10497779;28;20028;-51
2021/09/23 19:50:12;;;;;;;3.50;2.47;;;19.40;71.50;;;;;;10494575;28;20036;-52
2021/09/23 19:55:15;;;;;;;4.40;2.78;;;19.40;71.20;;;;;;10497645;28;20028;-53
2021/09/23 20:00:17;;;;;;;5.38;3.08;;;19.40;70.70;;;;;;10497630;28;20029;-54
2021/09/23 20:05:18;;;;;;;4.80;1.85;;;19.40;71.20;;;;;;10496648;28;20519;-53
2021/09/23 20:10:19;;;;;;;2.60;1.88;;;19.30;71.30;;;;;;10494889;28;20108;-53
2021/09/23 20:15:19;;;;;;;5.03;1.92;;;19.30;71.30;;;;;;10494418;28;20029;-54
2021/09/23 20:20:21;;;;;;;3.85;2.00;;;19.30;71.90;;;;;;10504657;28;20033;-54
2021/09/23 20:25:22;;;;;;;3.25;1.90;;;19.30;71.30;;;;;;10495867;28;20079;-53
2021/09/23 20:30:23;;;;;;;3.50;1.98;;;19.30;71.20;;;;;;10485089;28;20052;-51
2021/09/23 20:35:23;;;;;;;3.00;2.15;;;19.30;71.10;;;;;;10495532;28;20414;-52
2021/09/23 20:40:24;;;;;;;3.58;1.85;;;19.30;71.00;;;;;;10497187;28;20020;-52
2021/09/23 20:45:29;;;;;;;2.92;1.70;;;19.30;70.80;;;;;;10496644;28;20024;-53
2021/09/23 20:50:33;;;;;;;3.33;2.15;;;19.30;70.70;;;;;;10496660;28;20501;-53
2021/09/23 20:55:42;;;;;;;3.67;2.00;;;19.30;70.70;;;;;;10496298;28;20103;-51
2021/09/23 21:00:42;;;;;;;4.07;2.53;;;19.30;70.70;;;;;;10496439;28;20032;-51
2021/09/23 21:05:44;;;;;;;3.95;2.72;;;19.30;70.70;;;;;;10495937;28;20025;-52
2021/09/23 21:10:48;;;;;;;4.97;2.45;;;19.20;70.60;;;;;;10496165;28;20039;-52
2021/09/23 21:15:50;;;;;;;4.78;1.98;;;19.30;70.70;;;;;;10495868;28;20017;-53
2021/09/23 21:20:51;;;;;;;4.00;1.90;;;19.30;70.70;;;;;;10506290;28;20428;-53
2021/09/23 21:25:53;;;;;;;3.05;1.92;;;19.20;70.60;;;;;;10497363;28;20072;-54
2021/09/23 21:30:53;;;;;;;3.35;1.83;;;19.30;70.70;;;;;;10488766;28;20097;-53
2021/09/23 21:35:54;;;;;;;3.13;2.15;;;19.30;70.80;;;;;;10503075;28;20158;-53
2021/09/23 21:40:55;;;;;;;3.47;1.90;;;19.20;70.70;;;;;;10503134;28;20103;-52
2021/09/23 21:45:55;;;;;;;3.38;1.90;;;19.20;70.60;;;;;;10502160;28;20113;-53
2021/09/23 21:50:56;;;;;;;2.88;1.90;;;19.30;70.70;;;;;;10501300;28;20089;-54
2021/09/23 21:55:57;;;;;;;3.25;2.13;;;19.30;70.70;;;;;;10502120;28;20366;-53
2021/09/23 22:00:58;;;;;;;3.97;1.98;;;19.20;70.60;;;;;;10502301;28;20456;-52
2021/09/23 22:05:58;;;;;;;3.60;1.83;;;19.20;70.60;;;;;;10501764;28;20457;-48
2021/09/23 22:10:59;;;;;;;6.50;2.33;;;19.20;70.60;;;;;;10501664;28;20037;-51
2021/09/23 22:16:00;;;;;;;3.42;1.92;;;19.20;70.60;;;;;;10501150;28;20048;-52
2021/09/23 22:21:01;;;;;;;2.15;1.60;;;19.20;70.60;;;;;;10511091;28;20043;-52
2021/09/23 22:26:04;;;;;;;2.45;1.63;;;19.20;70.50;;;;;;10500961;28;20036;-51
2021/09/23 22:31:06;;;;;;;3.22;1.95;;;19.20;70.60;;;;;;10487547;28;20044;-52
2021/09/23 22:36:07;;;;;;;3.05;1.60;;;19.20;70.60;;;;;;10498961;28;20031;-51
2021/09/23 22:41:08;;;;;;;3.58;1.90;;;19.20;70.60;;;;;;10499582;28;20034;-54
2021/09/23 22:46:09;;;;;;;3.25;1.83;;;19.20;70.60;;;;;;10500310;28;20044;-52
2021/09/23 22:51:09;;;;;;;2.53;1.70;;;19.20;70.60;;;;;;10500497;28;20504;-51
2021/09/23 22:56:10;;;;;;;2.55;1.73;;;19.20;70.60;;;;;;10500243;28;20036;-49
2021/09/23 23:01:11;;;;;;;2.78;1.85;;;19.20;70.60;;;;;;10499997;28;20032;-53
2021/09/23 23:06:11;;;;;;;2.67;1.80;;;19.20;70.60;;;;;;10499571;28;20064;-53
2021/09/23 23:11:12;;;;;;;2.30;1.60;;;19.20;70.60;;;;;;10498182;28;20025;-52
2021/09/23 23:16:13;;;;;;;3.88;2.10;;;19.20;70.60;;;;;;10498990;28;20032;-52
2021/09/23 23:21:13;;;;;;;3.38;1.83;;;19.20;70.60;;;;;;10508723;28;20048;-47
2021/09/23 23:26:14;;;;;;;4.32;2.30;;;19.20;70.60;;;;;;10488636;28;20071;-53
2021/09/23 23:31:15;;;;;;;4.05;2.15;;;19.20;70.60;;;;;;10484842;28;20033;-51
2021/09/23 23:36:16;;;;;;;3.28;1.77;;;19.20;70.60;;;;;;10498502;28;20028;-52
2021/09/23 23:41:16;;;;;;;2.33;1.50;;;19.20;70.60;;;;;;10498471;28;20033;-49
2021/09/23 23:46:17;;;;;;;3.35;1.80;;;19.20;70.70;;;;;;10497982;28;20127;-49
2021/09/23 23:51:18;;;;;;;2.97;1.60;;;19.20;70.60;;;;;;10497281;28;20111;-51
2021/09/23 23:56:19;;;;;;;2.90;1.85;;;19.20;70.60;;;;;;10497542;28;20029;-53
